sensor_id;sensor_type;location;lat;lon;timestamp;P1;durP1;ratioP1;P2;durP2;ratioP2
23743;SDS011;12052;53.478;10.182;2022-08-03T00:01:03;4.82;;;2.92;;
23743;SDS011;12052;53.478;10.182;2022-08-03T00:03:29;3.95;;;3.17;;
23743;SDS011;12052;53.478;10.182;2022-08-03T00:05:54;4.82;;;3.25;;
23743;SDS011;12052;53.478;10.182;2022-08-03T00:08:20;4.10;;;2.92;;
23743;SDS011;12052;53.478;10.182;2022-08-03T00:10:46;4.90;;;3.33;;
23743;SDS011;12052;53.478;10.182;2022-08-03T00:13:11;3.78;;;2.70;;
23743;SDS011;12052;53.478;10.182;2022-08-03T00:15:41;4.38;;;3.25;;
23743;SDS011;12052;53.478;10.182;2022-08-03T00:18:07;3.10;;;2.80;;
23743;SDS011;12052;53.478;10.182;2022-08-03T00:20:33;5.65;;;3.00;;
23743;SDS011;12052;53.478;10.182;2022-08-03T00:22:59;5.38;;;3.28;;
23743;SDS011;12052;53.478;10.182;2022-08-03T00:25:25;4.65;;;3.30;;
23743;SDS011;12052;53.478;10.182;2022-08-03T00:27:50;4.20;;;3.20;;
23743;SDS011;12052;53.478;10.182;2022-08-03T00:30:16;5.43;;;3.22;;
23743;SDS011;12052;53.478;10.182;2022-08-03T00:32:42;7.85;;;3.65;;
23743;SDS011;12052;53.478;10.182;2022-08-03T00:35:07;8.40;;;3.58;;
23743;SDS011;12052;53.478;10.182;2022-08-03T00:37:33;4.82;;;3.38;;
23743;SDS011;12052;53.478;10.182;2022-08-03T00:39:59;3.58;;;3.08;;
23743;SDS011;12052;53.478;10.182;2022-08-03T00:42:24;4.88;;;3.20;;
23743;SDS011;12052;53.478;10.182;2022-08-03T00:44:50;6.95;;;3.65;;
23743;SDS011;12052;53.478;10.182;2022-08-03T00:47:16;7.07;;;4.00;;
23743;SDS011;12052;53.478;10.182;2022-08-03T00:49:41;4.63;;;3.55;;
23743;SDS011;12052;53.478;10.182;2022-08-03T00:52:07;4.90;;;3.45;;
23743;SDS011;12052;53.478;10.182;2022-08-03T00:54:34;6.47;;;3.33;;
23743;SDS011;12052;53.478;10.182;2022-08-03T00:57:03;5.38;;;3.42;;
23743;SDS011;12052;53.478;10.182;2022-08-03T00:59:29;7.68;;;3.10;;
23743;SDS011;12052;53.478;10.182;2022-08-03T01:01:55;6.20;;;3.28;;
23743;SDS011;12052;53.478;10.182;2022-08-03T01:04:21;8.48;;;3.78;;
23743;SDS011;12052;53.478;10.182;2022-08-03T01:07:13;5.25;;;3.40;;
23743;SDS011;12052;53.478;10.182;2022-08-03T01:09:40;6.95;;;3.75;;
23743;SDS011;12052;53.478;10.182;2022-08-03T01:14:56;5.80;;;3.88;;
23743;SDS011;12052;53.478;10.182;2022-08-03T01:17:33;4.53;;;4.13;;
23743;SDS011;12052;53.478;10.182;2022-08-03T01:20:08;5.10;;;3.55;;
23743;SDS011;12052;53.478;10.182;2022-08-03T01:25:05;4.15;;;3.75;;
23743;SDS011;12052;53.478;10.182;2022-08-03T01:30:42;5.00;;;3.85;;
23743;SDS011;12052;53.478;10.182;2022-08-03T01:33:19;8.23;;;3.72;;
23743;SDS011;12052;53.478;10.182;2022-08-03T01:35:53;7.47;;;3.63;;
23743;SDS011;12052;53.478;10.182;2022-08-03T01:38:28;5.88;;;3.67;;
23743;SDS011;12052;53.478;10.182;2022-08-03T01:41:00;7.15;;;3.67;;
23743;SDS011;12052;53.478;10.182;2022-08-03T01:43:29;5.82;;;3.88;;
23743;SDS011;12052;53.478;10.182;2022-08-03T01:45:55;5.97;;;3.38;;
23743;SDS011;12052;53.478;10.182;2022-08-03T01:48:22;4.78;;;3.70;;
23743;SDS011;12052;53.478;10.182;2022-08-03T01:50:48;8.15;;;3.75;;
23743;SDS011;12052;53.478;10.182;2022-08-03T01:53:15;11.40;;;3.95;;
23743;SDS011;12052;53.478;10.182;2022-08-03T01:55:46;6.22;;;3.80;;
23743;SDS011;12052;53.478;10.182;2022-08-03T01:58:14;3.78;;;3.40;;
23743;SDS011;12052;53.478;10.182;2022-08-03T02:00:41;6.95;;;3.63;;
23743;SDS011;12052;53.478;10.182;2022-08-03T02:03:07;5.80;;;3.25;;
23743;SDS011;12052;53.478;10.182;2022-08-03T02:05:34;6.32;;;3.60;;
23743;SDS011;12052;53.478;10.182;2022-08-03T02:08:02;4.63;;;3.40;;
23743;SDS011;12052;53.478;10.182;2022-08-03T02:10:30;4.05;;;3.65;;
23743;SDS011;12052;53.478;10.182;2022-08-03T02:12:57;4.90;;;3.95;;
23743;SDS011;12052;53.478;10.182;2022-08-03T02:15:27;6.65;;;4.82;;
23743;SDS011;12052;53.478;10.182;2022-08-03T02:17:53;4.00;;;3.40;;
23743;SDS011;12052;53.478;10.182;2022-08-03T02:20:21;4.43;;;3.55;;
23743;SDS011;12052;53.478;10.182;2022-08-03T02:22:47;7.22;;;4.05;;
23743;SDS011;12052;53.478;10.182;2022-08-03T02:25:13;5.47;;;4.00;;
23743;SDS011;12052;53.478;10.182;2022-08-03T02:27:50;6.93;;;4.00;;
23743;SDS011;12052;53.478;10.182;2022-08-03T02:30:18;7.32;;;4.18;;
23743;SDS011;12052;53.478;10.182;2022-08-03T02:32:47;6.72;;;4.05;;
23743;SDS011;12052;53.478;10.182;2022-08-03T02:35:18;5.95;;;4.10;;
23743;SDS011;12052;53.478;10.182;2022-08-03T02:37:47;6.25;;;4.22;;
23743;SDS011;12052;53.478;10.182;2022-08-03T02:40:17;6.22;;;4.13;;
23743;SDS011;12052;53.478;10.182;2022-08-03T02:42:44;5.85;;;4.22;;
23743;SDS011;12052;53.478;10.182;2022-08-03T02:45:13;5.85;;;4.07;;
23743;SDS011;12052;53.478;10.182;2022-08-03T02:47:40;5.90;;;4.00;;
23743;SDS011;12052;53.478;10.182;2022-08-03T02:50:09;8.82;;;4.53;;
23743;SDS011;12052;53.478;10.182;2022-08-03T02:52:37;7.38;;;4.20;;
23743;SDS011;12052;53.478;10.182;2022-08-03T02:55:03;5.10;;;4.28;;
23743;SDS011;12052;53.478;10.182;2022-08-03T02:57:32;6.88;;;4.20;;
23743;SDS011;12052;53.478;10.182;2022-08-03T02:59:59;6.03;;;4.22;;
23743;SDS011;12052;53.478;10.182;2022-08-03T03:02:26;5.07;;;3.80;;
23743;SDS011;12052;53.478;10.182;2022-08-03T03:04:53;5.18;;;3.90;;
23743;SDS011;12052;53.478;10.182;2022-08-03T03:07:20;5.28;;;4.15;;
23743;SDS011;12052;53.478;10.182;2022-08-03T03:09:46;6.65;;;4.38;;
23743;SDS011;12052;53.478;10.182;2022-08-03T03:12:12;5.10;;;4.00;;
23743;SDS011;12052;53.478;10.182;2022-08-03T03:14:38;4.30;;;3.88;;
23743;SDS011;12052;53.478;10.182;2022-08-03T03:17:05;4.70;;;4.10;;
23743;SDS011;12052;53.478;10.182;2022-08-03T03:19:32;7.75;;;3.97;;
23743;SDS011;12052;53.478;10.182;2022-08-03T03:21:59;7.25;;;4.45;;
23743;SDS011;12052;53.478;10.182;2022-08-03T03:24:27;7.95;;;4.32;;
23743;SDS011;12052;53.478;10.182;2022-08-03T03:26:54;4.82;;;4.28;;
23743;SDS011;12052;53.478;10.182;2022-08-03T03:29:20;9.00;;;4.50;;
23743;SDS011;12052;53.478;10.182;2022-08-03T03:31:46;5.45;;;3.97;;
23743;SDS011;12052;53.478;10.182;2022-08-03T03:34:12;5.68;;;4.63;;
23743;SDS011;12052;53.478;10.182;2022-08-03T03:36:38;5.28;;;4.20;;
23743;SDS011;12052;53.478;10.182;2022-08-03T03:39:04;9.25;;;4.85;;
23743;SDS011;12052;53.478;10.182;2022-08-03T03:41:30;5.18;;;4.32;;
23743;SDS011;12052;53.478;10.182;2022-08-03T03:43:56;4.95;;;4.45;;
23743;SDS011;12052;53.478;10.182;2022-08-03T03:46:21;5.07;;;4.35;;
23743;SDS011;12052;53.478;10.182;2022-08-03T03:48:47;6.18;;;5.20;;
23743;SDS011;12052;53.478;10.182;2022-08-03T03:51:13;6.53;;;4.35;;
23743;SDS011;12052;53.478;10.182;2022-08-03T03:53:39;7.45;;;4.35;;
23743;SDS011;12052;53.478;10.182;2022-08-03T03:56:04;6.05;;;4.63;;
23743;SDS011;12052;53.478;10.182;2022-08-03T03:58:31;9.68;;;5.25;;
23743;SDS011;12052;53.478;10.182;2022-08-03T04:00:57;5.32;;;4.70;;
23743;SDS011;12052;53.478;10.182;2022-08-03T04:03:22;7.28;;;4.80;;
23743;SDS011;12052;53.478;10.182;2022-08-03T04:05:48;6.68;;;5.18;;
23743;SDS011;12052;53.478;10.182;2022-08-03T04:08:32;5.78;;;4.78;;
23743;SDS011;12052;53.478;10.182;2022-08-03T04:11:19;7.70;;;4.75;;
23743;SDS011;12052;53.478;10.182;2022-08-03T04:13:52;5.40;;;4.85;;
23743;SDS011;12052;53.478;10.182;2022-08-03T04:16:39;7.63;;;5.05;;
23743;SDS011;12052;53.478;10.182;2022-08-03T04:19:54;6.88;;;4.60;;
23743;SDS011;12052;53.478;10.182;2022-08-03T04:21:59;6.85;;;4.70;;
23743;SDS011;12052;53.478;10.182;2022-08-03T04:24:29;7.38;;;4.78;;
23743;SDS011;12052;53.478;10.182;2022-08-03T04:26:59;6.57;;;4.93;;
23743;SDS011;12052;53.478;10.182;2022-08-03T04:29:28;7.68;;;5.10;;
23743;SDS011;12052;53.478;10.182;2022-08-03T04:31:57;6.95;;;5.20;;
23743;SDS011;12052;53.478;10.182;2022-08-03T04:34:23;7.05;;;5.18;;
23743;SDS011;12052;53.478;10.182;2022-08-03T04:36:50;6.03;;;4.30;;
23743;SDS011;12052;53.478;10.182;2022-08-03T04:39:22;5.57;;;4.72;;
23743;SDS011;12052;53.478;10.182;2022-08-03T04:41:51;6.20;;;4.93;;
23743;SDS011;12052;53.478;10.182;2022-08-03T04:44:22;7.32;;;5.07;;
23743;SDS011;12052;53.478;10.182;2022-08-03T04:46:49;7.70;;;5.13;;
23743;SDS011;12052;53.478;10.182;2022-08-03T04:49:16;7.03;;;5.07;;
23743;SDS011;12052;53.478;10.182;2022-08-03T04:51:44;9.38;;;5.22;;
23743;SDS011;12052;53.478;10.182;2022-08-03T04:54:13;10.00;;;5.07;;
23743;SDS011;12052;53.478;10.182;2022-08-03T04:56:40;6.53;;;5.00;;
23743;SDS011;12052;53.478;10.182;2022-08-03T04:59:06;6.45;;;5.15;;
23743;SDS011;12052;53.478;10.182;2022-08-03T05:01:32;8.27;;;5.80;;
23743;SDS011;12052;53.478;10.182;2022-08-03T05:03:58;7.20;;;5.03;;
23743;SDS011;12052;53.478;10.182;2022-08-03T05:06:24;10.45;;;5.13;;
23743;SDS011;12052;53.478;10.182;2022-08-03T05:08:50;5.90;;;5.07;;
23743;SDS011;12052;53.478;10.182;2022-08-03T05:11:16;7.07;;;4.80;;
23743;SDS011;12052;53.478;10.182;2022-08-03T05:13:42;8.25;;;5.07;;
23743;SDS011;12052;53.478;10.182;2022-08-03T05:16:08;6.13;;;4.82;;
23743;SDS011;12052;53.478;10.182;2022-08-03T05:18:34;8.48;;;5.53;;
23743;SDS011;12052;53.478;10.182;2022-08-03T05:21:00;5.57;;;4.90;;
23743;SDS011;12052;53.478;10.182;2022-08-03T05:23:25;6.68;;;5.18;;
23743;SDS011;12052;53.478;10.182;2022-08-03T05:25:51;9.45;;;5.43;;
23743;SDS011;12052;53.478;10.182;2022-08-03T05:28:17;6.97;;;4.82;;
23743;SDS011;12052;53.478;10.182;2022-08-03T05:30:42;8.77;;;5.35;;
23743;SDS011;12052;53.478;10.182;2022-08-03T05:33:08;5.78;;;5.03;;
23743;SDS011;12052;53.478;10.182;2022-08-03T05:35:35;7.85;;;5.65;;
23743;SDS011;12052;53.478;10.182;2022-08-03T05:38:03;6.47;;;4.85;;
23743;SDS011;12052;53.478;10.182;2022-08-03T05:40:28;7.18;;;4.47;;
23743;SDS011;12052;53.478;10.182;2022-08-03T05:42:54;5.55;;;5.00;;
23743;SDS011;12052;53.478;10.182;2022-08-03T05:45:20;9.98;;;5.35;;
23743;SDS011;12052;53.478;10.182;2022-08-03T05:47:45;5.30;;;4.60;;
23743;SDS011;12052;53.478;10.182;2022-08-03T05:50:12;11.63;;;5.60;;
23743;SDS011;12052;53.478;10.182;2022-08-03T05:52:38;9.23;;;4.78;;
23743;SDS011;12052;53.478;10.182;2022-08-03T05:55:05;5.45;;;4.90;;
23743;SDS011;12052;53.478;10.182;2022-08-03T05:57:31;5.68;;;4.38;;
23743;SDS011;12052;53.478;10.182;2022-08-03T05:59:57;8.05;;;4.97;;
23743;SDS011;12052;53.478;10.182;2022-08-03T06:02:23;10.80;;;5.20;;
23743;SDS011;12052;53.478;10.182;2022-08-03T06:04:49;8.35;;;4.70;;
23743;SDS011;12052;53.478;10.182;2022-08-03T06:07:14;7.82;;;5.38;;
23743;SDS011;12052;53.478;10.182;2022-08-03T06:09:40;7.82;;;5.28;;
23743;SDS011;12052;53.478;10.182;2022-08-03T06:12:05;5.57;;;4.25;;
23743;SDS011;12052;53.478;10.182;2022-08-03T06:14:31;6.00;;;5.07;;
23743;SDS011;12052;53.478;10.182;2022-08-03T06:16:57;7.10;;;4.70;;
23743;SDS011;12052;53.478;10.182;2022-08-03T06:19:22;6.80;;;4.57;;
23743;SDS011;12052;53.478;10.182;2022-08-03T06:21:49;10.85;;;4.97;;
23743;SDS011;12052;53.478;10.182;2022-08-03T06:24:15;5.28;;;4.72;;
23743;SDS011;12052;53.478;10.182;2022-08-03T06:26:40;5.28;;;4.30;;
23743;SDS011;12052;53.478;10.182;2022-08-03T06:29:06;8.88;;;4.35;;
23743;SDS011;12052;53.478;10.182;2022-08-03T06:31:31;7.07;;;4.18;;
23743;SDS011;12052;53.478;10.182;2022-08-03T06:33:57;6.20;;;4.32;;
23743;SDS011;12052;53.478;10.182;2022-08-03T06:36:23;7.45;;;3.80;;
23743;SDS011;12052;53.478;10.182;2022-08-03T06:38:49;5.82;;;4.05;;
23743;SDS011;12052;53.478;10.182;2022-08-03T06:41:15;5.97;;;4.55;;
23743;SDS011;12052;53.478;10.182;2022-08-03T06:43:41;6.32;;;4.38;;
23743;SDS011;12052;53.478;10.182;2022-08-03T06:46:06;7.57;;;4.25;;
23743;SDS011;12052;53.478;10.182;2022-08-03T06:48:32;6.13;;;4.03;;
23743;SDS011;12052;53.478;10.182;2022-08-03T06:50:58;7.72;;;4.10;;
23743;SDS011;12052;53.478;10.182;2022-08-03T06:53:23;5.35;;;3.97;;
23743;SDS011;12052;53.478;10.182;2022-08-03T06:55:49;5.88;;;3.85;;
23743;SDS011;12052;53.478;10.182;2022-08-03T06:58:15;5.68;;;3.78;;
23743;SDS011;12052;53.478;10.182;2022-08-03T07:00:40;5.13;;;3.78;;
23743;SDS011;12052;53.478;10.182;2022-08-03T07:03:06;4.80;;;3.53;;
23743;SDS011;12052;53.478;10.182;2022-08-03T07:05:31;4.13;;;3.58;;
23743;SDS011;12052;53.478;10.182;2022-08-03T07:07:59;5.07;;;3.70;;
23743;SDS011;12052;53.478;10.182;2022-08-03T07:10:26;5.45;;;3.83;;
23743;SDS011;12052;53.478;10.182;2022-08-03T07:12:52;5.95;;;3.65;;
23743;SDS011;12052;53.478;10.182;2022-08-03T07:15:18;4.13;;;3.70;;
23743;SDS011;12052;53.478;10.182;2022-08-03T07:17:43;6.30;;;3.67;;
23743;SDS011;12052;53.478;10.182;2022-08-03T07:20:09;5.47;;;3.80;;
23743;SDS011;12052;53.478;10.182;2022-08-03T07:22:35;3.80;;;3.33;;
23743;SDS011;12052;53.478;10.182;2022-08-03T07:25:01;5.43;;;3.42;;
23743;SDS011;12052;53.478;10.182;2022-08-03T07:27:27;5.32;;;3.67;;
23743;SDS011;12052;53.478;10.182;2022-08-03T07:29:54;5.03;;;3.20;;
23743;SDS011;12052;53.478;10.182;2022-08-03T07:32:20;7.00;;;3.30;;
23743;SDS011;12052;53.478;10.182;2022-08-03T07:34:46;3.80;;;2.70;;
23743;SDS011;12052;53.478;10.182;2022-08-03T07:37:11;10.10;;;3.05;;
23743;SDS011;12052;53.478;10.182;2022-08-03T07:39:37;4.70;;;3.00;;
23743;SDS011;12052;53.478;10.182;2022-08-03T07:42:02;3.20;;;2.90;;
23743;SDS011;12052;53.478;10.182;2022-08-03T07:44:28;6.88;;;2.63;;
23743;SDS011;12052;53.478;10.182;2022-08-03T07:46:53;3.85;;;2.45;;
23743;SDS011;12052;53.478;10.182;2022-08-03T07:49:19;5.85;;;2.53;;
23743;SDS011;12052;53.478;10.182;2022-08-03T07:51:44;3.53;;;2.40;;
23743;SDS011;12052;53.478;10.182;2022-08-03T07:54:30;4.82;;;2.75;;
23743;SDS011;12052;53.478;10.182;2022-08-03T07:56:56;5.18;;;2.42;;
23743;SDS011;12052;53.478;10.182;2022-08-03T07:59:21;6.95;;;2.65;;
23743;SDS011;12052;53.478;10.182;2022-08-03T08:01:47;2.80;;;2.20;;
23743;SDS011;12052;53.478;10.182;2022-08-03T08:04:12;3.13;;;2.20;;
23743;SDS011;12052;53.478;10.182;2022-08-03T08:06:38;3.15;;;2.05;;
23743;SDS011;12052;53.478;10.182;2022-08-03T08:09:03;4.03;;;2.58;;
23743;SDS011;12052;53.478;10.182;2022-08-03T08:11:29;5.07;;;2.22;;
23743;SDS011;12052;53.478;10.182;2022-08-03T08:13:54;4.60;;;1.77;;
23743;SDS011;12052;53.478;10.182;2022-08-03T08:16:20;4.13;;;1.95;;
23743;SDS011;12052;53.478;10.182;2022-08-03T08:18:45;1.98;;;1.52;;
23743;SDS011;12052;53.478;10.182;2022-08-03T08:21:11;5.10;;;2.10;;
23743;SDS011;12052;53.478;10.182;2022-08-03T08:23:37;3.97;;;2.25;;
23743;SDS011;12052;53.478;10.182;2022-08-03T08:26:02;6.68;;;2.13;;
23743;SDS011;12052;53.478;10.182;2022-08-03T08:28:28;2.85;;;1.73;;
23743;SDS011;12052;53.478;10.182;2022-08-03T08:30:53;2.58;;;2.03;;
23743;SDS011;12052;53.478;10.182;2022-08-03T08:33:19;3.45;;;2.17;;
23743;SDS011;12052;53.478;10.182;2022-08-03T08:35:44;6.20;;;2.33;;
23743;SDS011;12052;53.478;10.182;2022-08-03T08:38:10;3.90;;;1.65;;
23743;SDS011;12052;53.478;10.182;2022-08-03T08:40:36;4.90;;;1.77;;
23743;SDS011;12052;53.478;10.182;2022-08-03T08:43:01;6.30;;;1.80;;
23743;SDS011;12052;53.478;10.182;2022-08-03T08:45:27;4.15;;;1.67;;
23743;SDS011;12052;53.478;10.182;2022-08-03T08:47:54;3.58;;;1.40;;
23743;SDS011;12052;53.478;10.182;2022-08-03T08:50:21;3.28;;;1.52;;
23743;SDS011;12052;53.478;10.182;2022-08-03T08:52:47;4.93;;;1.95;;
23743;SDS011;12052;53.478;10.182;2022-08-03T08:55:14;5.55;;;1.63;;
23743;SDS011;12052;53.478;10.182;2022-08-03T08:57:47;3.22;;;2.05;;
23743;SDS011;12052;53.478;10.182;2022-08-03T09:00:15;4.57;;;1.50;;
23743;SDS011;12052;53.478;10.182;2022-08-03T09:02:41;5.57;;;1.50;;
23743;SDS011;12052;53.478;10.182;2022-08-03T09:05:14;4.95;;;1.40;;
23743;SDS011;12052;53.478;10.182;2022-08-03T09:07:42;3.13;;;1.83;;
23743;SDS011;12052;53.478;10.182;2022-08-03T09:10:09;3.67;;;1.50;;
23743;SDS011;12052;53.478;10.182;2022-08-03T09:12:43;2.28;;;1.27;;
23743;SDS011;12052;53.478;10.182;2022-08-03T09:15:22;5.25;;;1.52;;
23743;SDS011;12052;53.478;10.182;2022-08-03T09:17:52;4.80;;;1.70;;
23743;SDS011;12052;53.478;10.182;2022-08-03T09:20:20;1.60;;;1.40;;
23743;SDS011;12052;53.478;10.182;2022-08-03T09:25:26;6.10;;;1.55;;
23743;SDS011;12052;53.478;10.182;2022-08-03T09:28:15;4.22;;;1.33;;
23743;SDS011;12052;53.478;10.182;2022-08-03T09:30:43;5.90;;;1.85;;
23743;SDS011;12052;53.478;10.182;2022-08-03T09:33:21;3.83;;;1.17;;
23743;SDS011;12052;53.478;10.182;2022-08-03T09:35:47;3.97;;;1.42;;
23743;SDS011;12052;53.478;10.182;2022-08-03T09:38:14;2.85;;;1.40;;
23743;SDS011;12052;53.478;10.182;2022-08-03T09:40:42;1.90;;;1.27;;
23743;SDS011;12052;53.478;10.182;2022-08-03T09:43:09;2.53;;;1.35;;
23743;SDS011;12052;53.478;10.182;2022-08-03T09:45:36;7.85;;;1.67;;
23743;SDS011;12052;53.478;10.182;2022-08-03T09:50:51;3.88;;;1.50;;
23743;SDS011;12052;53.478;10.182;2022-08-03T09:53:21;6.53;;;1.73;;
23743;SDS011;12052;53.478;10.182;2022-08-03T09:58:20;2.90;;;1.27;;
23743;SDS011;12052;53.478;10.182;2022-08-03T10:01:00;2.65;;;1.45;;
23743;SDS011;12052;53.478;10.182;2022-08-03T10:03:30;2.63;;;1.40;;
23743;SDS011;12052;53.478;10.182;2022-08-03T10:05:58;2.33;;;1.20;;
23743;SDS011;12052;53.478;10.182;2022-08-03T10:08:46;5.22;;;1.88;;
23743;SDS011;12052;53.478;10.182;2022-08-03T10:11:28;6.25;;;1.45;;
23743;SDS011;12052;53.478;10.182;2022-08-03T10:13:55;4.65;;;1.67;;
23743;SDS011;12052;53.478;10.182;2022-08-03T10:16:20;3.35;;;1.20;;
23743;SDS011;12052;53.478;10.182;2022-08-03T10:18:46;3.55;;;2.00;;
23743;SDS011;12052;53.478;10.182;2022-08-03T10:21:12;2.42;;;1.55;;
23743;SDS011;12052;53.478;10.182;2022-08-03T10:23:43;4.45;;;1.50;;
23743;SDS011;12052;53.478;10.182;2022-08-03T10:26:09;4.97;;;1.48;;
23743;SDS011;12052;53.478;10.182;2022-08-03T10:28:41;5.32;;;1.50;;
23743;SDS011;12052;53.478;10.182;2022-08-03T10:31:12;2.45;;;1.48;;
23743;SDS011;12052;53.478;10.182;2022-08-03T10:33:41;5.25;;;1.52;;
23743;SDS011;12052;53.478;10.182;2022-08-03T10:36:08;6.97;;;1.70;;
23743;SDS011;12052;53.478;10.182;2022-08-03T10:38:39;2.42;;;1.63;;
23743;SDS011;12052;53.478;10.182;2022-08-03T10:41:09;6.78;;;1.60;;
23743;SDS011;12052;53.478;10.182;2022-08-03T10:43:47;7.15;;;1.70;;
23743;SDS011;12052;53.478;10.182;2022-08-03T10:46:17;3.47;;;1.88;;
23743;SDS011;12052;53.478;10.182;2022-08-03T10:48:45;6.00;;;1.38;;
23743;SDS011;12052;53.478;10.182;2022-08-03T10:51:12;5.72;;;1.52;;
23743;SDS011;12052;53.478;10.182;2022-08-03T10:53:39;7.10;;;1.20;;
23743;SDS011;12052;53.478;10.182;2022-08-03T10:59:17;4.35;;;1.60;;
23743;SDS011;12052;53.478;10.182;2022-08-03T11:02:02;6.70;;;1.60;;
23743;SDS011;12052;53.478;10.182;2022-08-03T11:04:27;8.52;;;1.80;;
23743;SDS011;12052;53.478;10.182;2022-08-03T11:09:54;7.10;;;2.08;;
23743;SDS011;12052;53.478;10.182;2022-08-03T11:12:25;8.82;;;2.13;;
23743;SDS011;12052;53.478;10.182;2022-08-03T11:17:19;2.88;;;1.73;;
23743;SDS011;12052;53.478;10.182;2022-08-03T11:19:46;4.68;;;1.50;;
23743;SDS011;12052;53.478;10.182;2022-08-03T11:22:15;3.72;;;1.92;;
23743;SDS011;12052;53.478;10.182;2022-08-03T11:35:30;1.65;;;1.25;;
23743;SDS011;12052;53.478;10.182;2022-08-03T11:40:42;3.92;;;1.58;;
23743;SDS011;12052;53.478;10.182;2022-08-03T11:46:15;2.35;;;1.60;;
23743;SDS011;12052;53.478;10.182;2022-08-03T11:48:46;3.88;;;1.80;;
23743;SDS011;12052;53.478;10.182;2022-08-03T11:51:24;5.68;;;1.95;;
23743;SDS011;12052;53.478;10.182;2022-08-03T11:53:55;8.85;;;1.60;;
23743;SDS011;12052;53.478;10.182;2022-08-03T11:56:25;3.88;;;1.50;;
23743;SDS011;12052;53.478;10.182;2022-08-03T11:58:52;4.65;;;1.45;;
23743;SDS011;12052;53.478;10.182;2022-08-03T12:01:20;1.95;;;1.25;;
23743;SDS011;12052;53.478;10.182;2022-08-03T12:03:46;8.38;;;1.85;;
23743;SDS011;12052;53.478;10.182;2022-08-03T12:06:14;3.42;;;1.27;;
23743;SDS011;12052;53.478;10.182;2022-08-03T12:08:41;2.58;;;1.33;;
23743;SDS011;12052;53.478;10.182;2022-08-03T12:11:09;3.50;;;1.50;;
23743;SDS011;12052;53.478;10.182;2022-08-03T12:13:37;3.60;;;1.38;;
23743;SDS011;12052;53.478;10.182;2022-08-03T12:16:07;2.97;;;1.45;;
23743;SDS011;12052;53.478;10.182;2022-08-03T12:18:33;2.70;;;1.60;;
23743;SDS011;12052;53.478;10.182;2022-08-03T12:21:07;3.17;;;1.67;;
23743;SDS011;12052;53.478;10.182;2022-08-03T12:23:34;5.32;;;1.40;;
23743;SDS011;12052;53.478;10.182;2022-08-03T12:26:04;2.35;;;1.60;;
23743;SDS011;12052;53.478;10.182;2022-08-03T12:28:32;2.30;;;1.33;;
23743;SDS011;12052;53.478;10.182;2022-08-03T12:31:04;4.50;;;1.60;;
23743;SDS011;12052;53.478;10.182;2022-08-03T12:33:31;5.35;;;1.60;;
23743;SDS011;12052;53.478;10.182;2022-08-03T12:36:17;5.38;;;1.52;;
23743;SDS011;12052;53.478;10.182;2022-08-03T12:38:43;2.10;;;1.30;;
23743;SDS011;12052;53.478;10.182;2022-08-03T12:41:32;4.93;;;1.40;;
23743;SDS011;12052;53.478;10.182;2022-08-03T12:44:02;2.58;;;1.40;;
23743;SDS011;12052;53.478;10.182;2022-08-03T12:46:32;6.10;;;1.15;;
23743;SDS011;12052;53.478;10.182;2022-08-03T12:49:09;5.18;;;1.40;;
23743;SDS011;12052;53.478;10.182;2022-08-03T12:51:55;7.40;;;1.50;;
23743;SDS011;12052;53.478;10.182;2022-08-03T12:54:23;2.22;;;1.20;;
23743;SDS011;12052;53.478;10.182;2022-08-03T12:57:13;8.88;;;1.73;;
23743;SDS011;12052;53.478;10.182;2022-08-03T12:59:40;7.80;;;1.40;;
23743;SDS011;12052;53.478;10.182;2022-08-03T13:02:17;4.60;;;1.90;;
23743;SDS011;12052;53.478;10.182;2022-08-03T13:04:44;4.43;;;1.23;;
23743;SDS011;12052;53.478;10.182;2022-08-03T13:07:11;3.33;;;1.63;;
23743;SDS011;12052;53.478;10.182;2022-08-03T13:12:14;1.48;;;1.25;;
23743;SDS011;12052;53.478;10.182;2022-08-03T13:14:41;7.60;;;1.92;;
23743;SDS011;12052;53.478;10.182;2022-08-03T13:17:09;5.25;;;1.30;;
23743;SDS011;12052;53.478;10.182;2022-08-03T13:19:35;6.63;;;1.27;;
23743;SDS011;12052;53.478;10.182;2022-08-03T13:22:45;2.92;;;1.80;;
23743;SDS011;12052;53.478;10.182;2022-08-03T13:24:53;4.03;;;1.48;;
23743;SDS011;12052;53.478;10.182;2022-08-03T13:27:20;6.93;;;1.45;;
23743;SDS011;12052;53.478;10.182;2022-08-03T13:29:46;6.47;;;1.60;;
23743;SDS011;12052;53.478;10.182;2022-08-03T13:32:11;1.83;;;1.02;;
23743;SDS011;12052;53.478;10.182;2022-08-03T13:34:37;8.90;;;1.80;;
23743;SDS011;12052;53.478;10.182;2022-08-03T13:37:03;4.43;;;1.42;;
23743;SDS011;12052;53.478;10.182;2022-08-03T13:39:29;3.72;;;1.15;;
23743;SDS011;12052;53.478;10.182;2022-08-03T13:41:54;8.10;;;1.55;;
23743;SDS011;12052;53.478;10.182;2022-08-03T13:44:20;3.15;;;1.20;;
23743;SDS011;12052;53.478;10.182;2022-08-03T13:46:46;5.28;;;1.67;;
23743;SDS011;12052;53.478;10.182;2022-08-03T13:49:12;2.35;;;1.60;;
23743;SDS011;12052;53.478;10.182;2022-08-03T13:51:38;6.30;;;1.73;;
23743;SDS011;12052;53.478;10.182;2022-08-03T13:54:04;4.28;;;1.80;;
23743;SDS011;12052;53.478;10.182;2022-08-03T13:56:30;6.32;;;2.40;;
23743;SDS011;12052;53.478;10.182;2022-08-03T13:58:56;2.13;;;1.30;;
23743;SDS011;12052;53.478;10.182;2022-08-03T14:01:22;5.10;;;1.20;;
23743;SDS011;12052;53.478;10.182;2022-08-03T14:03:49;6.55;;;1.30;;
23743;SDS011;12052;53.478;10.182;2022-08-03T14:06:18;3.85;;;1.30;;
23743;SDS011;12052;53.478;10.182;2022-08-03T14:08:48;5.88;;;1.80;;
23743;SDS011;12052;53.478;10.182;2022-08-03T14:11:14;5.15;;;1.77;;
23743;SDS011;12052;53.478;10.182;2022-08-03T14:13:39;3.15;;;1.20;;
23743;SDS011;12052;53.478;10.182;2022-08-03T14:16:05;2.88;;;1.30;;
23743;SDS011;12052;53.478;10.182;2022-08-03T14:18:31;13.38;;;1.67;;
23743;SDS011;12052;53.478;10.182;2022-08-03T14:20:57;2.03;;;1.15;;
23743;SDS011;12052;53.478;10.182;2022-08-03T14:23:24;4.85;;;1.55;;
23743;SDS011;12052;53.478;10.182;2022-08-03T14:25:50;12.13;;;1.48;;
23743;SDS011;12052;53.478;10.182;2022-08-03T14:28:16;6.32;;;1.40;;
23743;SDS011;12052;53.478;10.182;2022-08-03T14:30:42;3.90;;;1.70;;
23743;SDS011;12052;53.478;10.182;2022-08-03T14:33:08;6.18;;;1.48;;
23743;SDS011;12052;53.478;10.182;2022-08-03T14:35:33;2.85;;;1.50;;
23743;SDS011;12052;53.478;10.182;2022-08-03T14:37:59;5.28;;;1.45;;
23743;SDS011;12052;53.478;10.182;2022-08-03T14:40:25;6.47;;;1.60;;
23743;SDS011;12052;53.478;10.182;2022-08-03T14:42:50;7.50;;;1.52;;
23743;SDS011;12052;53.478;10.182;2022-08-03T14:45:16;4.75;;;1.45;;
23743;SDS011;12052;53.478;10.182;2022-08-03T14:47:41;5.50;;;1.63;;
23743;SDS011;12052;53.478;10.182;2022-08-03T14:50:07;4.20;;;1.42;;
23743;SDS011;12052;53.478;10.182;2022-08-03T14:52:33;5.10;;;1.80;;
23743;SDS011;12052;53.478;10.182;2022-08-03T14:54:59;3.20;;;1.30;;
23743;SDS011;12052;53.478;10.182;2022-08-03T14:57:25;4.78;;;1.30;;
23743;SDS011;12052;53.478;10.182;2022-08-03T14:59:51;2.63;;;1.38;;
23743;SDS011;12052;53.478;10.182;2022-08-03T15:02:17;3.15;;;1.50;;
23743;SDS011;12052;53.478;10.182;2022-08-03T15:04:43;2.90;;;1.13;;
23743;SDS011;12052;53.478;10.182;2022-08-03T15:07:08;4.15;;;1.40;;
23743;SDS011;12052;53.478;10.182;2022-08-03T15:09:34;5.40;;;1.75;;
23743;SDS011;12052;53.478;10.182;2022-08-03T15:12:00;4.65;;;1.40;;
23743;SDS011;12052;53.478;10.182;2022-08-03T15:14:25;1.92;;;1.20;;
23743;SDS011;12052;53.478;10.182;2022-08-03T15:16:51;2.63;;;1.40;;
23743;SDS011;12052;53.478;10.182;2022-08-03T15:19:17;3.35;;;1.33;;
23743;SDS011;12052;53.478;10.182;2022-08-03T15:21:42;3.60;;;1.20;;